Nome, Alaska
Current Conditions -  °F | °C
As of 2:53 AM on Friday 19 Dec 2014 (Local Time) from PAOM Reporting Station
Overcast Overcast  
Wind Chill: 13°   Ceiling: 11000
Heat Index: 25°   Visibility: 10mi
Dew Point: 15°   Wind: 15mph
Humidity: 66%   Direction: 30°NNE
Pressure: 29.36"   Gusts: NA
Location:  64.5°N, 165.41°W
Report Text: PAOM 191153Z 03013KT 10SM OVC110 M04/M09 A2936 RMK SLP944 4/011 T10391094 11017 21039 58005 $ VIA AUTODIAL
Loading
Personal Weather Stations






























Interactive Weather Map New forecast layout! Learn more

10-Day Weather Forecast

Advertisements
Track Severe Weather on mobile